createdAt,value
2023-03-18T00:00:11.252Z,9.32
2023-03-18T00:02:39.230Z,7.63
2023-03-18T00:05:07.552Z,9.23
2023-03-18T00:07:36.100Z,7.07
2023-03-18T00:10:03.860Z,11.07
2023-03-18T00:12:31.110Z,8.50
2023-03-18T00:14:57.424Z,8.93
2023-03-18T00:17:23.833Z,9.25
2023-03-18T00:19:50.167Z,10.35
2023-03-18T00:22:17.046Z,9.63
2023-03-18T00:24:43.484Z,9.00
2023-03-18T00:27:09.849Z,8.80
2023-03-18T00:29:36.174Z,7.78
2023-03-18T00:32:02.587Z,13.00
2023-03-18T00:34:29.008Z,8.30
2023-03-18T00:36:56.952Z,8.68
2023-03-18T00:39:28.714Z,10.30
2023-03-18T00:41:56.818Z,9.15
2023-03-18T00:44:25.228Z,10.32
2023-03-18T00:46:51.816Z,9.93
2023-03-18T00:49:19.005Z,9.70
2023-03-18T00:51:45.758Z,9.38
2023-03-18T00:54:13.737Z,12.15
2023-03-18T00:56:40.595Z,9.57
2023-03-18T00:59:08.557Z,14.93
2023-03-18T01:01:35.622Z,8.55
2023-03-18T01:04:02.515Z,10.75
2023-03-18T01:06:32.361Z,11.10
2023-03-18T01:08:58.822Z,9.73
2023-03-18T01:11:25.980Z,9.65
2023-03-18T01:13:52.937Z,9.48
2023-03-18T01:16:20.793Z,12.13
2023-03-18T01:18:47.961Z,8.10
2023-03-18T01:21:14.557Z,8.10
2023-03-18T01:23:42.217Z,9.43
2023-03-18T01:26:09.636Z,10.57
2023-03-18T01:28:36.641Z,13.88
2023-03-18T01:31:03.205Z,9.25
2023-03-18T01:33:29.947Z,7.50
2023-03-18T01:35:59.667Z,9.88
2023-03-18T01:38:30.030Z,10.27
2023-03-18T01:40:57.854Z,8.30
2023-03-18T01:43:28.943Z,9.10
2023-03-18T01:48:26.293Z,7.78
2023-03-18T01:51:04.060Z,8.77
2023-03-18T01:53:36.495Z,11.65
2023-03-18T01:56:04.127Z,11.07
2023-03-18T01:58:36.627Z,10.18
2023-03-18T02:01:33.783Z,9.00
2023-03-18T02:04:02.203Z,9.80
2023-03-18T02:06:29.386Z,10.65
2023-03-18T02:08:56.494Z,12.25
2023-03-18T02:13:50.659Z,10.43
2023-03-18T02:16:28.052Z,13.35
2023-03-18T02:18:58.352Z,11.88
2023-03-18T02:21:53.495Z,10.40
2023-03-18T02:24:49.755Z,16.75
2023-03-18T02:27:15.986Z,12.95
2023-03-18T02:29:43.068Z,10.57
2023-03-18T02:32:10.565Z,12.68
2023-03-18T02:34:40.650Z,10.90
2023-03-18T02:37:07.896Z,10.15
2023-03-18T02:39:35.541Z,17.77
2023-03-18T02:42:02.073Z,13.00
2023-03-18T02:44:28.977Z,10.73
2023-03-18T02:47:03.984Z,12.13
2023-03-18T02:49:30.931Z,15.82
2023-03-18T02:51:57.245Z,14.73
2023-03-18T02:54:26.468Z,16.25
2023-03-18T02:56:53.248Z,16.23
2023-03-18T02:59:21.353Z,12.07
2023-03-18T03:01:51.411Z,14.23
2023-03-18T03:04:19.776Z,17.25
2023-03-18T03:06:46.311Z,14.20
2023-03-18T03:09:16.083Z,9.02
2023-03-18T03:11:45.328Z,13.35
2023-03-18T03:14:12.767Z,13.82
2023-03-18T03:16:39.090Z,19.15
2023-03-18T03:19:05.927Z,18.08
2023-03-18T03:21:35.666Z,13.40
2023-03-18T03:24:04.621Z,13.10
2023-03-18T03:26:31.272Z,13.82
2023-03-18T03:28:58.333Z,15.20
2023-03-18T03:31:24.959Z,12.80
2023-03-18T03:33:51.418Z,15.88
2023-03-18T03:36:17.827Z,13.23
2023-03-18T03:38:44.981Z,14.38
2023-03-18T03:41:12.789Z,14.52
2023-03-18T03:43:40.192Z,17.42
2023-03-18T03:46:08.126Z,12.07
2023-03-18T03:48:34.957Z,16.65
2023-03-18T03:51:02.684Z,16.92
2023-03-18T03:53:29.000Z,20.33
2023-03-18T03:55:58.681Z,19.38
2023-03-18T03:58:26.383Z,16.33
2023-03-18T04:00:52.800Z,14.23
2023-03-18T04:03:19.556Z,16.23
2023-03-18T04:05:45.840Z,16.10
2023-03-18T04:08:12.366Z,14.77
2023-03-18T04:10:38.792Z,14.38
2023-03-18T04:13:05.701Z,16.10
2023-03-18T04:15:32.264Z,20.48
2023-03-18T04:18:02.109Z,15.68
2023-03-18T04:20:28.445Z,15.68
2023-03-18T04:22:54.834Z,17.00
2023-03-18T04:25:22.172Z,17.17
2023-03-18T04:27:48.495Z,15.35
2023-03-18T04:30:14.937Z,16.58
2023-03-18T04:32:41.311Z,17.85
2023-03-18T04:35:09.102Z,19.25
2023-03-18T04:37:37.394Z,16.02
2023-03-18T04:40:06.059Z,20.85
2023-03-18T04:42:32.411Z,17.90
2023-03-18T04:44:58.823Z,17.60
2023-03-18T04:47:25.231Z,24.33
2023-03-18T04:49:51.562Z,18.35
2023-03-18T04:52:17.898Z,21.92
2023-03-18T04:54:44.594Z,23.80
2023-03-18T04:57:11.079Z,20.60
2023-03-18T04:59:37.391Z,17.92
2023-03-18T05:02:04.744Z,23.33
2023-03-18T05:04:31.113Z,19.02
2023-03-18T05:06:58.154Z,18.08
2023-03-18T05:09:25.137Z,23.55
2023-03-18T05:11:51.544Z,20.40
2023-03-18T05:14:17.868Z,19.90
2023-03-18T05:16:44.703Z,21.05
2023-03-18T05:19:11.577Z,20.23
2023-03-18T05:21:38.196Z,20.08
2023-03-18T05:24:05.014Z,19.65
2023-03-18T05:26:31.329Z,24.42
2023-03-18T05:28:58.780Z,15.98
2023-03-18T05:31:25.549Z,19.33
2023-03-18T05:33:52.536Z,21.63
2023-03-18T05:36:19.095Z,17.02
2023-03-18T05:38:45.470Z,17.52
2023-03-18T05:41:11.870Z,20.25
2023-03-18T05:43:40.575Z,19.27
2023-03-18T05:46:06.972Z,17.00
2023-03-18T05:48:34.047Z,19.95
2023-03-18T05:51:00.387Z,17.70
2023-03-18T05:53:26.759Z,15.65
2023-03-18T05:55:53.113Z,16.75
2023-03-18T05:58:20.926Z,15.40
2023-03-18T06:00:47.414Z,17.60
2023-03-18T06:03:13.732Z,19.13
2023-03-18T06:05:40.115Z,18.58
2023-03-18T06:08:07.250Z,21.10
2023-03-18T06:10:33.658Z,18.70
2023-03-18T06:13:00.826Z,24.23
2023-03-18T06:15:27.321Z,24.05
2023-03-18T06:17:53.701Z,22.40
2023-03-18T06:20:20.799Z,21.48
2023-03-18T06:22:49.521Z,18.55
2023-03-18T06:25:21.115Z,19.88
2023-03-18T06:27:47.860Z,19.65
2023-03-18T06:30:16.002Z,22.20
2023-03-18T06:32:42.813Z,22.85
2023-03-18T06:35:10.451Z,21.83
2023-03-18T06:37:38.065Z,22.27
2023-03-18T06:40:05.940Z,21.38
2023-03-18T06:42:32.674Z,24.95
2023-03-18T06:44:59.807Z,24.50
2023-03-18T06:47:26.251Z,23.65
2023-03-18T06:49:52.550Z,19.02
2023-03-18T06:52:19.066Z,18.48
2023-03-18T06:54:46.024Z,19.02
2023-03-18T06:57:13.331Z,19.20
2023-03-18T06:59:39.881Z,22.48
2023-03-18T07:02:08.489Z,19.05
2023-03-18T07:04:35.394Z,25.10
2023-03-18T07:07:01.939Z,18.60
2023-03-18T07:09:28.592Z,20.70
2023-03-18T07:11:54.879Z,23.85
2023-03-18T07:14:21.565Z,18.85
2023-03-18T07:16:48.073Z,18.92
2023-03-18T07:19:15.229Z,18.67
2023-03-18T07:21:42.866Z,19.58
2023-03-18T07:24:09.665Z,22.08
2023-03-18T07:26:38.527Z,22.20
2023-03-18T07:29:05.412Z,20.77
2023-03-18T07:31:31.833Z,19.98
2023-03-18T07:33:58.381Z,20.50
2023-03-18T07:36:25.534Z,18.50
2023-03-18T07:38:51.886Z,18.58
2023-03-18T07:41:18.193Z,18.35
2023-03-18T07:43:44.969Z,19.85
2023-03-18T07:46:11.423Z,20.55
2023-03-18T07:48:37.781Z,21.88
2023-03-18T07:51:04.341Z,21.20
2023-03-18T07:53:30.659Z,16.27
2023-03-18T07:55:57.203Z,19.33
2023-03-18T07:58:24.496Z,19.13
2023-03-18T08:00:52.445Z,18.48
2023-03-18T08:03:18.958Z,21.52
2023-03-18T08:05:45.281Z,18.67
2023-03-18T08:08:12.876Z,15.77
2023-03-18T08:10:39.253Z,17.92
2023-03-18T08:13:06.018Z,17.33
2023-03-18T08:15:32.512Z,13.05
2023-03-18T08:17:59.120Z,13.82
2023-03-18T08:20:25.500Z,17.80
2023-03-18T08:22:51.861Z,14.10
2023-03-18T08:25:18.366Z,15.88
2023-03-18T08:27:44.737Z,19.50
2023-03-18T08:30:11.636Z,15.15
2023-03-18T08:32:38.306Z,19.85
2023-03-18T08:35:05.258Z,16.45
2023-03-18T08:37:31.601Z,15.20
2023-03-18T08:39:58.644Z,14.00
2023-03-18T08:42:25.157Z,17.48
2023-03-18T08:44:51.488Z,14.52
2023-03-18T08:47:17.810Z,8.18
2023-03-18T08:49:44.441Z,14.82
2023-03-18T08:52:11.653Z,11.75
2023-03-18T08:54:38.884Z,14.70
2023-03-18T08:57:05.402Z,16.08
2023-03-18T08:59:31.740Z,12.27
2023-03-18T09:01:58.452Z,16.30
2023-03-18T09:04:25.795Z,13.82
2023-03-18T09:06:52.259Z,13.60
2023-03-18T09:09:18.878Z,12.60
2023-03-18T09:11:46.259Z,10.70
2023-03-18T09:14:13.242Z,8.90
2023-03-18T09:16:40.354Z,11.07
2023-03-18T09:19:07.113Z,12.93
2023-03-18T09:21:33.624Z,10.63
2023-03-18T09:24:00.033Z,11.63
2023-03-18T09:26:26.357Z,12.35
2023-03-18T09:28:52.676Z,12.38
2023-03-18T09:31:19.151Z,12.32
2023-03-18T09:33:46.946Z,13.85
2023-03-18T09:36:13.753Z,11.98
2023-03-18T09:38:41.131Z,11.18
2023-03-18T09:41:16.399Z,12.55
2023-03-18T09:43:48.490Z,10.85
2023-03-18T09:46:24.731Z,12.05
2023-03-18T09:49:12.296Z,10.57
2023-03-18T09:51:46.603Z,10.48
2023-03-18T09:54:36.302Z,12.98
2023-03-18T09:57:05.857Z,9.85
2023-03-18T09:59:39.963Z,10.65
2023-03-18T10:02:23.747Z,9.15
2023-03-18T10:04:56.083Z,7.82
2023-03-18T10:07:28.394Z,7.13
2023-03-18T10:10:00.663Z,8.82
2023-03-18T10:12:35.561Z,7.32
2023-03-18T10:15:15.058Z,11.10
2023-03-18T10:17:46.797Z,7.03
2023-03-18T10:20:20.134Z,8.13
2023-03-18T10:22:52.654Z,8.02
2023-03-18T10:25:43.283Z,6.20
2023-03-18T10:28:28.742Z,9.75
2023-03-18T10:31:23.580Z,7.28
2023-03-18T10:34:02.050Z,8.73
2023-03-18T10:36:34.962Z,7.55
2023-03-18T10:39:03.286Z,6.80
2023-03-18T10:41:38.368Z,6.32
2023-03-18T10:44:17.077Z,7.30
2023-03-18T10:46:46.405Z,10.40
2023-03-18T10:49:19.116Z,7.97
2023-03-18T10:52:17.862Z,8.70
2023-03-18T10:54:50.312Z,5.28
2023-03-18T10:57:18.399Z,7.88
2023-03-18T10:59:45.418Z,9.65
2023-03-18T11:02:20.044Z,6.85
2023-03-18T11:04:57.717Z,14.45
2023-03-18T11:07:26.927Z,5.88
2023-03-18T11:09:53.682Z,5.38
2023-03-18T11:12:28.887Z,4.85
2023-03-18T11:14:56.234Z,5.85
2023-03-18T11:17:31.984Z,4.30
2023-03-18T11:20:16.902Z,4.30
2023-03-18T11:22:48.562Z,5.32
2023-03-18T11:25:20.037Z,4.38
2023-03-18T11:27:58.210Z,2.92
2023-03-18T11:30:34.706Z,6.13
2023-03-18T11:33:10.166Z,4.00
2023-03-18T11:35:41.740Z,5.32
2023-03-18T11:38:15.540Z,7.18
2023-03-18T11:40:41.967Z,5.82
2023-03-18T11:43:19.802Z,5.32
2023-03-18T11:45:46.061Z,4.57
2023-03-18T11:48:17.804Z,4.10
2023-03-18T11:51:29.315Z,3.85
2023-03-18T11:54:03.529Z,5.78
2023-03-18T11:56:34.947Z,5.47
2023-03-18T11:59:04.037Z,4.25
2023-03-18T12:02:05.871Z,5.07
2023-03-18T12:05:01.079Z,3.78
2023-03-18T12:07:39.212Z,4.57
2023-03-18T12:10:16.219Z,5.65
2023-03-18T12:12:54.633Z,6.30
2023-03-18T12:16:12.201Z,5.20
2023-03-18T12:19:07.214Z,4.32
2023-03-18T12:21:54.554Z,4.22
2023-03-18T12:25:01.647Z,3.80
2023-03-18T12:28:07.497Z,3.70
2023-03-18T12:30:54.013Z,2.15
2023-03-18T12:33:29.135Z,2.40
2023-03-18T12:36:07.691Z,3.80
2023-03-18T12:38:41.690Z,2.90
2023-03-18T12:41:40.122Z,2.25
2023-03-18T12:45:01.832Z,2.47
2023-03-18T12:47:36.999Z,1.80
2023-03-18T12:50:14.244Z,3.25
2023-03-18T12:53:04.069Z,3.65
2023-03-18T12:55:34.954Z,2.90
2023-03-18T12:58:07.559Z,2.67
2023-03-18T13:00:39.943Z,1.80
2023-03-18T13:03:31.235Z,6.97
2023-03-18T13:08:46.384Z,4.82
2023-03-18T13:11:18.902Z,3.35
2023-03-18T13:13:51.608Z,3.33
2023-03-18T13:16:19.944Z,2.05
2023-03-18T13:18:52.095Z,3.40
2023-03-18T13:21:23.297Z,1.63
2023-03-18T13:24:09.130Z,3.55
2023-03-18T13:26:56.838Z,4.25
2023-03-18T13:29:45.074Z,3.85
2023-03-18T13:32:39.510Z,4.05
2023-03-18T13:35:51.188Z,3.67
2023-03-18T13:38:32.799Z,6.07
2023-03-18T13:40:59.482Z,3.58
2023-03-18T13:43:27.991Z,4.40
2023-03-18T13:45:57.002Z,3.13
2023-03-18T13:48:30.497Z,3.63
2023-03-18T13:50:58.954Z,4.20
2023-03-18T13:53:32.974Z,2.78
2023-03-18T13:55:59.238Z,3.97
2023-03-18T13:58:29.861Z,5.75
2023-03-18T14:00:56.164Z,4.97
2023-03-18T14:03:31.445Z,3.95
2023-03-18T14:06:04.189Z,2.80
2023-03-18T14:08:33.702Z,3.38
2023-03-18T14:11:22.491Z,2.08
2023-03-18T14:14:02.817Z,1.85
2023-03-18T14:16:48.977Z,1.10
2023-03-18T14:19:28.421Z,1.73
2023-03-18T14:22:06.819Z,4.47
2023-03-18T14:24:33.748Z,1.73
2023-03-18T14:27:06.619Z,1.92
2023-03-18T14:29:43.131Z,4.60
2023-03-18T14:32:34.491Z,2.38
2023-03-18T14:35:27.985Z,3.40
2023-03-18T14:38:03.588Z,4.75
2023-03-18T14:40:36.184Z,2.85
2023-03-18T14:43:10.226Z,8.48
2023-03-18T14:45:44.565Z,5.30
2023-03-18T14:48:19.610Z,4.00
2023-03-18T14:50:51.806Z,3.17
2023-03-18T14:53:20.202Z,2.13
2023-03-18T14:55:47.762Z,5.40
2023-03-18T14:58:25.693Z,3.90
2023-03-18T15:01:03.866Z,3.17
2023-03-18T15:03:32.285Z,3.95
2023-03-18T15:06:04.422Z,2.38
2023-03-18T15:08:47.345Z,2.58
2023-03-18T15:11:16.247Z,3.00
2023-03-18T15:13:42.715Z,3.13
2023-03-18T15:16:11.500Z,2.33
2023-03-18T15:18:39.722Z,3.10
2023-03-18T15:21:21.053Z,1.30
2023-03-18T15:23:52.464Z,1.70
2023-03-18T15:26:29.643Z,6.53
2023-03-18T15:28:58.693Z,2.13
2023-03-18T15:31:31.184Z,3.13
2023-03-18T15:34:07.396Z,2.58
2023-03-18T15:36:45.221Z,1.95
2023-03-18T15:39:38.233Z,1.15
2023-03-18T15:42:15.408Z,1.05
2023-03-18T15:44:43.239Z,1.88
2023-03-18T15:47:27.861Z,1.33
2023-03-18T15:49:57.506Z,0.77
2023-03-18T15:52:33.748Z,3.40
2023-03-18T15:55:01.318Z,2.30
2023-03-18T15:57:34.814Z,1.42
2023-03-18T16:00:01.716Z,4.18
2023-03-18T16:02:29.718Z,2.45
2023-03-18T16:05:28.235Z,1.67
2023-03-18T16:07:55.251Z,3.75
2023-03-18T16:10:23.882Z,3.63
2023-03-18T16:12:57.770Z,2.47
2023-03-18T16:15:26.254Z,1.92
2023-03-18T16:17:54.265Z,1.73
2023-03-18T16:20:23.453Z,2.13
2023-03-18T16:22:50.838Z,3.15
2023-03-18T16:25:17.364Z,2.35
2023-03-18T16:27:55.690Z,2.83
2023-03-18T16:30:25.775Z,2.25
2023-03-18T16:32:53.383Z,2.88
2023-03-18T16:35:25.581Z,3.50
2023-03-18T16:37:53.178Z,5.38
2023-03-18T16:40:22.547Z,2.88
2023-03-18T16:42:50.234Z,2.20
2023-03-18T16:45:19.221Z,2.85
2023-03-18T16:47:47.408Z,2.65
2023-03-18T16:50:25.629Z,5.53
2023-03-18T16:52:52.146Z,2.70
2023-03-18T16:55:19.888Z,2.10
2023-03-18T16:57:51.452Z,5.80
2023-03-18T17:00:22.683Z,2.65
2023-03-18T17:02:52.324Z,6.40
2023-03-18T17:05:21.000Z,3.13
2023-03-18T17:07:47.559Z,4.22
2023-03-18T17:10:15.459Z,5.55
2023-03-18T17:12:49.136Z,8.73
2023-03-18T17:15:19.705Z,2.25
2023-03-18T17:17:47.377Z,4.57
2023-03-18T17:20:20.975Z,3.78
2023-03-18T17:22:48.757Z,3.63
2023-03-18T17:25:16.361Z,2.53
2023-03-18T17:27:49.096Z,3.85
2023-03-18T17:30:21.236Z,5.05
2023-03-18T17:32:48.555Z,3.40
2023-03-18T17:35:18.498Z,4.65
2023-03-18T17:37:45.368Z,3.60
2023-03-18T17:40:17.623Z,2.88
2023-03-18T17:42:45.640Z,5.32
2023-03-18T17:45:28.446Z,5.22
2023-03-18T17:48:11.446Z,4.97
2023-03-18T17:50:37.975Z,6.90
2023-03-18T17:53:04.569Z,5.55
2023-03-18T17:55:31.246Z,5.82
2023-03-18T17:57:57.998Z,3.75
2023-03-18T18:00:26.179Z,6.13
2023-03-18T18:02:58.387Z,3.08
2023-03-18T18:05:24.692Z,4.47
2023-03-18T18:07:51.421Z,6.28
2023-03-18T18:10:20.329Z,5.45
2023-03-18T18:12:49.766Z,5.55
2023-03-18T18:15:19.663Z,6.28
2023-03-18T18:17:47.087Z,6.25
2023-03-18T18:20:18.049Z,6.55
2023-03-18T18:25:21.520Z,6.45
2023-03-18T18:27:49.607Z,7.50
2023-03-18T18:30:18.208Z,8.85
2023-03-18T18:32:45.666Z,3.63
2023-03-18T18:35:18.393Z,10.10
2023-03-18T18:37:45.797Z,7.22
2023-03-18T18:40:14.336Z,8.52
2023-03-18T18:42:42.060Z,6.85
2023-03-18T18:45:14.590Z,4.38
2023-03-18T18:47:41.638Z,5.30
2023-03-18T18:50:16.527Z,9.55
2023-03-18T18:52:43.054Z,5.63
2023-03-18T18:55:11.162Z,5.80
2023-03-18T18:57:41.216Z,7.32
2023-03-18T19:00:17.360Z,5.15
2023-03-18T19:02:46.620Z,4.78
2023-03-18T19:05:13.461Z,3.45
2023-03-18T19:07:43.502Z,6.15
2023-03-18T19:10:14.637Z,3.95
2023-03-18T19:12:42.184Z,13.95
2023-03-18T19:15:09.142Z,6.50
2023-03-18T19:17:36.517Z,5.93
2023-03-18T19:20:05.309Z,4.50
2023-03-18T19:22:32.050Z,4.10
2023-03-18T19:24:58.627Z,5.10
2023-03-18T19:27:29.027Z,7.70
2023-03-18T19:30:01.044Z,4.75
2023-03-18T19:32:27.537Z,5.28
2023-03-18T19:34:54.855Z,4.63
2023-03-18T19:37:31.071Z,4.75
2023-03-18T19:39:59.216Z,5.32
2023-03-18T19:42:26.187Z,8.63
2023-03-18T19:44:52.645Z,5.75
2023-03-18T19:47:23.014Z,7.15
2023-03-18T19:49:50.308Z,4.45
2023-03-18T19:52:25.292Z,4.63
2023-03-18T19:54:53.095Z,8.00
2023-03-18T19:57:24.028Z,3.10
2023-03-18T19:59:52.490Z,4.60
2023-03-18T20:02:21.867Z,3.30
2023-03-18T20:04:53.621Z,5.07
2023-03-18T20:07:21.904Z,4.38
2023-03-18T20:09:49.181Z,5.00
2023-03-18T20:12:24.252Z,5.75
2023-03-18T20:14:51.657Z,3.63
2023-03-18T20:17:23.852Z,3.47
2023-03-18T20:19:51.229Z,2.25
2023-03-18T20:22:23.615Z,4.05
2023-03-18T20:24:50.380Z,3.10
2023-03-18T20:27:17.239Z,3.15
2023-03-18T20:29:45.642Z,4.07
2023-03-18T20:32:12.090Z,4.40
2023-03-18T20:34:40.603Z,6.88
2023-03-18T20:37:22.191Z,5.55
2023-03-18T20:39:50.239Z,3.85
2023-03-18T20:42:17.466Z,4.97
2023-03-18T20:44:45.092Z,7.15
2023-03-18T20:47:13.292Z,5.57
2023-03-18T20:49:44.340Z,4.63
2023-03-18T20:57:19.093Z,6.43
2023-03-18T20:59:46.580Z,5.35
2023-03-18T21:02:34.883Z,4.50
2023-03-18T21:05:02.239Z,4.43
2023-03-18T21:07:29.382Z,2.53
2023-03-18T21:09:55.853Z,3.33
2023-03-18T21:12:22.661Z,3.78
2023-03-18T21:14:49.761Z,4.13
2023-03-18T21:17:24.720Z,2.60
2023-03-18T21:19:52.634Z,2.17
2023-03-18T21:22:30.078Z,1.80
2023-03-18T21:24:57.402Z,2.90
2023-03-18T21:27:29.747Z,2.08
2023-03-18T21:29:57.786Z,2.75
2023-03-18T21:32:31.488Z,2.85
2023-03-18T21:34:58.316Z,3.45
2023-03-18T21:37:27.158Z,2.83
2023-03-18T21:39:53.732Z,1.63
2023-03-18T21:42:28.750Z,2.78
2023-03-18T21:44:57.145Z,1.35
2023-03-18T21:47:25.546Z,2.42
2023-03-18T21:49:52.002Z,3.20
2023-03-18T21:52:34.647Z,2.38
2023-03-18T21:55:02.174Z,2.40
2023-03-18T21:57:29.327Z,3.95
2023-03-18T21:59:55.740Z,2.25
2023-03-18T22:02:22.108Z,2.85
2023-03-18T22:04:48.452Z,3.42
2023-03-18T22:07:15.307Z,3.33
2023-03-18T22:09:42.885Z,2.72
2023-03-18T22:12:19.432Z,3.28
2023-03-18T22:14:45.760Z,4.53
2023-03-18T22:17:30.318Z,2.30
2023-03-18T22:19:58.009Z,2.40
2023-03-18T22:22:29.178Z,1.92
2023-03-18T22:24:55.582Z,1.50
2023-03-18T22:27:30.593Z,5.72
2023-03-18T22:29:59.309Z,1.15
2023-03-18T22:32:43.522Z,2.28
2023-03-18T22:35:16.176Z,2.08
2023-03-18T22:37:42.709Z,3.13
2023-03-18T22:40:24.355Z,3.13
2023-03-18T22:42:53.306Z,2.90
2023-03-18T22:45:22.866Z,2.92
2023-03-18T22:47:51.576Z,3.35
2023-03-18T22:50:18.666Z,2.85
2023-03-18T22:52:45.856Z,2.15
2023-03-18T22:55:21.037Z,1.63
2023-03-18T22:57:48.967Z,3.40
2023-03-18T23:00:30.614Z,2.08
2023-03-18T23:02:57.803Z,3.05
2023-03-18T23:05:24.189Z,4.07
2023-03-18T23:07:50.903Z,2.63
2023-03-18T23:10:18.425Z,2.95
2023-03-18T23:12:45.234Z,2.50
2023-03-18T23:15:17.495Z,3.72
2023-03-18T23:17:44.841Z,1.75
2023-03-18T23:20:12.894Z,1.85
2023-03-18T23:22:39.268Z,2.80
2023-03-18T23:25:06.531Z,2.08
2023-03-18T23:27:34.425Z,0.88
2023-03-18T23:30:01.169Z,0.82
2023-03-18T23:32:28.264Z,0.70
2023-03-18T23:34:54.617Z,1.23
2023-03-18T23:37:21.761Z,1.08
2023-03-18T23:39:48.114Z,2.33
2023-03-18T23:42:16.221Z,2.08
2023-03-18T23:44:43.701Z,2.30
2023-03-18T23:47:11.543Z,1.83
2023-03-18T23:49:37.986Z,0.85
2023-03-18T23:52:11.715Z,1.70
2023-03-18T23:54:39.275Z,2.20
2023-03-18T23:57:07.197Z,2.08
2023-03-18T23:59:33.656Z,2.45
